sensor_id;sensor_type;location;lat;lon;timestamp;P1;durP1;ratioP1;P2;durP2;ratioP2
15555;SDS011;7879;48.660;9.116;2023-12-20T00:02:11;0.30;;;0.30;;
15555;SDS011;7879;48.660;9.116;2023-12-20T00:04:38;0.30;;;0.30;;
15555;SDS011;7879;48.660;9.116;2023-12-20T00:07:05;0.22;;;0.22;;
15555;SDS011;7879;48.660;9.116;2023-12-20T00:09:32;0.25;;;0.25;;
15555;SDS011;7879;48.660;9.116;2023-12-20T00:11:58;0.30;;;0.30;;
15555;SDS011;7879;48.660;9.116;2023-12-20T00:14:25;0.30;;;0.30;;
15555;SDS011;7879;48.660;9.116;2023-12-20T00:16:52;0.30;;;0.30;;
15555;SDS011;7879;48.660;9.116;2023-12-20T00:19:19;0.30;;;0.30;;
15555;SDS011;7879;48.660;9.116;2023-12-20T00:21:46;0.30;;;0.30;;
15555;SDS011;7879;48.660;9.116;2023-12-20T00:24:13;0.30;;;0.30;;
15555;SDS011;7879;48.660;9.116;2023-12-20T00:26:39;0.20;;;0.20;;
15555;SDS011;7879;48.660;9.116;2023-12-20T00:29:06;0.30;;;0.30;;
15555;SDS011;7879;48.660;9.116;2023-12-20T00:31:33;0.30;;;0.30;;
15555;SDS011;7879;48.660;9.116;2023-12-20T00:34:00;0.30;;;0.30;;
15555;SDS011;7879;48.660;9.116;2023-12-20T00:36:27;0.20;;;0.20;;
15555;SDS011;7879;48.660;9.116;2023-12-20T00:38:54;0.30;;;0.30;;
15555;SDS011;7879;48.660;9.116;2023-12-20T00:41:20;0.30;;;0.30;;
15555;SDS011;7879;48.660;9.116;2023-12-20T00:43:47;0.30;;;0.30;;
15555;SDS011;7879;48.660;9.116;2023-12-20T00:46:15;0.20;;;0.20;;
15555;SDS011;7879;48.660;9.116;2023-12-20T00:48:42;0.30;;;0.30;;
15555;SDS011;7879;48.660;9.116;2023-12-20T00:51:09;0.30;;;0.30;;
15555;SDS011;7879;48.660;9.116;2023-12-20T00:53:36;0.30;;;0.30;;
15555;SDS011;7879;48.660;9.116;2023-12-20T00:56:03;0.30;;;0.30;;
15555;SDS011;7879;48.660;9.116;2023-12-20T00:58:30;0.20;;;0.20;;
15555;SDS011;7879;48.660;9.116;2023-12-20T01:00:57;0.30;;;0.30;;
15555;SDS011;7879;48.660;9.116;2023-12-20T01:03:24;0.30;;;0.30;;
15555;SDS011;7879;48.660;9.116;2023-12-20T01:05:51;0.30;;;0.30;;
15555;SDS011;7879;48.660;9.116;2023-12-20T01:08:18;0.30;;;0.30;;
15555;SDS011;7879;48.660;9.116;2023-12-20T01:10:45;0.20;;;0.20;;
15555;SDS011;7879;48.660;9.116;2023-12-20T01:13:13;0.30;;;0.30;;
15555;SDS011;7879;48.660;9.116;2023-12-20T01:15:40;0.40;;;0.40;;
15555;SDS011;7879;48.660;9.116;2023-12-20T01:18:06;0.30;;;0.30;;
15555;SDS011;7879;48.660;9.116;2023-12-20T01:20:33;0.30;;;0.30;;
15555;SDS011;7879;48.660;9.116;2023-12-20T01:23:00;0.30;;;0.30;;
15555;SDS011;7879;48.660;9.116;2023-12-20T01:25:27;0.30;;;0.30;;
15555;SDS011;7879;48.660;9.116;2023-12-20T01:27:53;0.40;;;0.40;;
15555;SDS011;7879;48.660;9.116;2023-12-20T01:30:20;0.30;;;0.30;;
15555;SDS011;7879;48.660;9.116;2023-12-20T01:32:47;0.30;;;0.30;;
15555;SDS011;7879;48.660;9.116;2023-12-20T01:35:14;0.30;;;0.30;;
15555;SDS011;7879;48.660;9.116;2023-12-20T01:37:41;0.30;;;0.30;;
15555;SDS011;7879;48.660;9.116;2023-12-20T01:40:08;0.20;;;0.20;;
15555;SDS011;7879;48.660;9.116;2023-12-20T01:42:35;0.30;;;0.30;;
15555;SDS011;7879;48.660;9.116;2023-12-20T01:45:02;0.32;;;0.32;;
15555;SDS011;7879;48.660;9.116;2023-12-20T01:47:30;0.30;;;0.30;;
15555;SDS011;7879;48.660;9.116;2023-12-20T01:49:57;0.30;;;0.30;;
15555;SDS011;7879;48.660;9.116;2023-12-20T01:52:24;0.30;;;0.30;;
15555;SDS011;7879;48.660;9.116;2023-12-20T01:54:53;0.30;;;0.30;;
15555;SDS011;7879;48.660;9.116;2023-12-20T01:57:23;0.20;;;0.20;;
15555;SDS011;7879;48.660;9.116;2023-12-20T01:59:50;0.30;;;0.30;;
15555;SDS011;7879;48.660;9.116;2023-12-20T02:02:16;0.40;;;0.40;;
15555;SDS011;7879;48.660;9.116;2023-12-20T02:04:43;0.40;;;0.40;;
15555;SDS011;7879;48.660;9.116;2023-12-20T02:07:10;0.30;;;0.30;;
15555;SDS011;7879;48.660;9.116;2023-12-20T02:09:38;0.30;;;0.30;;
15555;SDS011;7879;48.660;9.116;2023-12-20T02:12:05;0.30;;;0.30;;
15555;SDS011;7879;48.660;9.116;2023-12-20T02:14:33;0.30;;;0.30;;
15555;SDS011;7879;48.660;9.116;2023-12-20T02:16:59;0.30;;;0.30;;
15555;SDS011;7879;48.660;9.116;2023-12-20T02:19:26;0.30;;;0.30;;
15555;SDS011;7879;48.660;9.116;2023-12-20T02:22:04;0.30;;;0.30;;
15555;SDS011;7879;48.660;9.116;2023-12-20T02:24:35;0.30;;;0.30;;
15555;SDS011;7879;48.660;9.116;2023-12-20T02:27:02;0.30;;;0.30;;
15555;SDS011;7879;48.660;9.116;2023-12-20T02:29:29;0.20;;;0.20;;
15555;SDS011;7879;48.660;9.116;2023-12-20T02:31:57;0.30;;;0.30;;
15555;SDS011;7879;48.660;9.116;2023-12-20T02:34:23;0.30;;;0.30;;
15555;SDS011;7879;48.660;9.116;2023-12-20T02:36:50;0.40;;;0.40;;
15555;SDS011;7879;48.660;9.116;2023-12-20T02:39:17;0.30;;;0.30;;
15555;SDS011;7879;48.660;9.116;2023-12-20T02:41:44;0.30;;;0.30;;
15555;SDS011;7879;48.660;9.116;2023-12-20T02:44:11;0.20;;;0.20;;
15555;SDS011;7879;48.660;9.116;2023-12-20T02:46:38;0.30;;;0.30;;
15555;SDS011;7879;48.660;9.116;2023-12-20T02:49:05;0.30;;;0.30;;
15555;SDS011;7879;48.660;9.116;2023-12-20T02:51:32;0.40;;;0.40;;
15555;SDS011;7879;48.660;9.116;2023-12-20T02:53:59;0.30;;;0.30;;
15555;SDS011;7879;48.660;9.116;2023-12-20T02:56:26;0.30;;;0.30;;
15555;SDS011;7879;48.660;9.116;2023-12-20T02:58:53;0.30;;;0.30;;
15555;SDS011;7879;48.660;9.116;2023-12-20T03:01:20;0.30;;;0.30;;
15555;SDS011;7879;48.660;9.116;2023-12-20T03:03:46;0.20;;;0.20;;
15555;SDS011;7879;48.660;9.116;2023-12-20T03:06:17;0.30;;;0.30;;
15555;SDS011;7879;48.660;9.116;2023-12-20T03:08:45;0.40;;;0.40;;
15555;SDS011;7879;48.660;9.116;2023-12-20T03:11:12;0.40;;;0.40;;
15555;SDS011;7879;48.660;9.116;2023-12-20T03:13:39;0.30;;;0.30;;
15555;SDS011;7879;48.660;9.116;2023-12-20T03:16:09;0.30;;;0.30;;
15555;SDS011;7879;48.660;9.116;2023-12-20T03:18:37;0.20;;;0.20;;
15555;SDS011;7879;48.660;9.116;2023-12-20T03:21:04;0.30;;;0.30;;
15555;SDS011;7879;48.660;9.116;2023-12-20T03:23:31;0.40;;;0.40;;
15555;SDS011;7879;48.660;9.116;2023-12-20T03:26:01;0.30;;;0.30;;
15555;SDS011;7879;48.660;9.116;2023-12-20T03:28:28;0.30;;;0.30;;
15555;SDS011;7879;48.660;9.116;2023-12-20T03:30:55;0.30;;;0.30;;
15555;SDS011;7879;48.660;9.116;2023-12-20T03:33:22;0.30;;;0.30;;
15555;SDS011;7879;48.660;9.116;2023-12-20T03:35:49;0.30;;;0.30;;
15555;SDS011;7879;48.660;9.116;2023-12-20T03:38:16;0.30;;;0.30;;
15555;SDS011;7879;48.660;9.116;2023-12-20T03:40:43;0.30;;;0.30;;
15555;SDS011;7879;48.660;9.116;2023-12-20T03:43:10;0.30;;;0.30;;
15555;SDS011;7879;48.660;9.116;2023-12-20T03:45:37;0.20;;;0.20;;
15555;SDS011;7879;48.660;9.116;2023-12-20T03:48:04;0.20;;;0.20;;
15555;SDS011;7879;48.660;9.116;2023-12-20T03:50:31;0.30;;;0.30;;
15555;SDS011;7879;48.660;9.116;2023-12-20T03:52:58;0.30;;;0.30;;
15555;SDS011;7879;48.660;9.116;2023-12-20T03:55:25;0.30;;;0.30;;
15555;SDS011;7879;48.660;9.116;2023-12-20T03:57:52;0.30;;;0.30;;
15555;SDS011;7879;48.660;9.116;2023-12-20T04:00:19;0.30;;;0.30;;
15555;SDS011;7879;48.660;9.116;2023-12-20T04:02:46;0.30;;;0.30;;
15555;SDS011;7879;48.660;9.116;2023-12-20T04:05:12;0.40;;;0.40;;
15555;SDS011;7879;48.660;9.116;2023-12-20T04:07:39;0.30;;;0.30;;
15555;SDS011;7879;48.660;9.116;2023-12-20T04:10:06;0.30;;;0.30;;
15555;SDS011;7879;48.660;9.116;2023-12-20T04:12:34;0.30;;;0.30;;
15555;SDS011;7879;48.660;9.116;2023-12-20T04:15:01;0.30;;;0.30;;
15555;SDS011;7879;48.660;9.116;2023-12-20T04:17:35;0.27;;;0.27;;
15555;SDS011;7879;48.660;9.116;2023-12-20T04:20:02;0.30;;;0.30;;
15555;SDS011;7879;48.660;9.116;2023-12-20T04:22:30;0.40;;;0.40;;
15555;SDS011;7879;48.660;9.116;2023-12-20T04:24:57;0.40;;;0.40;;
15555;SDS011;7879;48.660;9.116;2023-12-20T04:27:24;0.30;;;0.30;;
15555;SDS011;7879;48.660;9.116;2023-12-20T04:29:50;0.30;;;0.30;;
15555;SDS011;7879;48.660;9.116;2023-12-20T04:32:17;0.28;;;0.28;;
15555;SDS011;7879;48.660;9.116;2023-12-20T04:34:44;0.30;;;0.30;;
15555;SDS011;7879;48.660;9.116;2023-12-20T04:37:11;0.30;;;0.30;;
15555;SDS011;7879;48.660;9.116;2023-12-20T04:39:38;0.40;;;0.40;;
15555;SDS011;7879;48.660;9.116;2023-12-20T04:42:07;0.40;;;0.40;;
15555;SDS011;7879;48.660;9.116;2023-12-20T04:44:33;0.30;;;0.30;;
15555;SDS011;7879;48.660;9.116;2023-12-20T04:47:00;0.30;;;0.30;;
15555;SDS011;7879;48.660;9.116;2023-12-20T04:49:27;0.30;;;0.30;;
15555;SDS011;7879;48.660;9.116;2023-12-20T04:51:54;0.20;;;0.20;;
15555;SDS011;7879;48.660;9.116;2023-12-20T04:54:21;0.30;;;0.30;;
15555;SDS011;7879;48.660;9.116;2023-12-20T04:56:49;0.40;;;0.40;;
15555;SDS011;7879;48.660;9.116;2023-12-20T04:59:16;0.30;;;0.30;;
15555;SDS011;7879;48.660;9.116;2023-12-20T05:01:42;0.30;;;0.30;;
15555;SDS011;7879;48.660;9.116;2023-12-20T05:04:09;0.30;;;0.30;;
15555;SDS011;7879;48.660;9.116;2023-12-20T05:06:36;0.30;;;0.30;;
15555;SDS011;7879;48.660;9.116;2023-12-20T05:09:03;0.30;;;0.30;;
15555;SDS011;7879;48.660;9.116;2023-12-20T05:11:30;0.20;;;0.20;;
15555;SDS011;7879;48.660;9.116;2023-12-20T05:13:57;0.30;;;0.30;;
15555;SDS011;7879;48.660;9.116;2023-12-20T05:16:23;0.40;;;0.40;;
15555;SDS011;7879;48.660;9.116;2023-12-20T05:18:50;0.30;;;0.30;;
15555;SDS011;7879;48.660;9.116;2023-12-20T05:21:18;0.30;;;0.30;;
15555;SDS011;7879;48.660;9.116;2023-12-20T05:23:45;0.30;;;0.30;;
15555;SDS011;7879;48.660;9.116;2023-12-20T05:26:12;0.30;;;0.30;;
15555;SDS011;7879;48.660;9.116;2023-12-20T05:28:39;0.30;;;0.30;;
15555;SDS011;7879;48.660;9.116;2023-12-20T05:31:06;0.30;;;0.30;;
15555;SDS011;7879;48.660;9.116;2023-12-20T05:33:33;0.40;;;0.40;;
15555;SDS011;7879;48.660;9.116;2023-12-20T05:36:00;0.30;;;0.30;;
15555;SDS011;7879;48.660;9.116;2023-12-20T05:38:27;0.30;;;0.30;;
15555;SDS011;7879;48.660;9.116;2023-12-20T05:40:53;0.30;;;0.30;;
15555;SDS011;7879;48.660;9.116;2023-12-20T05:43:20;0.30;;;0.30;;
15555;SDS011;7879;48.660;9.116;2023-12-20T05:45:47;0.20;;;0.20;;
15555;SDS011;7879;48.660;9.116;2023-12-20T05:48:14;0.30;;;0.30;;
15555;SDS011;7879;48.660;9.116;2023-12-20T05:50:41;0.40;;;0.40;;
15555;SDS011;7879;48.660;9.116;2023-12-20T05:53:08;0.30;;;0.30;;
15555;SDS011;7879;48.660;9.116;2023-12-20T05:55:35;0.30;;;0.30;;
15555;SDS011;7879;48.660;9.116;2023-12-20T05:58:02;0.30;;;0.30;;
15555;SDS011;7879;48.660;9.116;2023-12-20T06:00:29;0.30;;;0.30;;
15555;SDS011;7879;48.660;9.116;2023-12-20T06:02:56;0.30;;;0.30;;
15555;SDS011;7879;48.660;9.116;2023-12-20T06:05:23;0.30;;;0.30;;
15555;SDS011;7879;48.660;9.116;2023-12-20T06:07:50;0.40;;;0.40;;
15555;SDS011;7879;48.660;9.116;2023-12-20T06:10:17;0.30;;;0.30;;
15555;SDS011;7879;48.660;9.116;2023-12-20T06:12:44;0.30;;;0.30;;
15555;SDS011;7879;48.660;9.116;2023-12-20T06:15:13;0.30;;;0.30;;
15555;SDS011;7879;48.660;9.116;2023-12-20T06:17:40;0.22;;;0.22;;
15555;SDS011;7879;48.660;9.116;2023-12-20T06:20:07;0.30;;;0.30;;
15555;SDS011;7879;48.660;9.116;2023-12-20T06:22:35;0.30;;;0.30;;
15555;SDS011;7879;48.660;9.116;2023-12-20T06:25:02;0.30;;;0.30;;
15555;SDS011;7879;48.660;9.116;2023-12-20T06:27:29;0.35;;;0.35;;
15555;SDS011;7879;48.660;9.116;2023-12-20T06:29:58;0.30;;;0.30;;
15555;SDS011;7879;48.660;9.116;2023-12-20T06:32:25;0.30;;;0.30;;
15555;SDS011;7879;48.660;9.116;2023-12-20T06:34:52;0.30;;;0.30;;
15555;SDS011;7879;48.660;9.116;2023-12-20T06:37:19;0.25;;;0.25;;
15555;SDS011;7879;48.660;9.116;2023-12-20T06:39:46;0.20;;;0.20;;
15555;SDS011;7879;48.660;9.116;2023-12-20T06:42:12;0.25;;;0.25;;
15555;SDS011;7879;48.660;9.116;2023-12-20T06:44:39;0.30;;;0.30;;
15555;SDS011;7879;48.660;9.116;2023-12-20T06:47:06;0.30;;;0.30;;
15555;SDS011;7879;48.660;9.116;2023-12-20T06:49:33;0.38;;;0.38;;
15555;SDS011;7879;48.660;9.116;2023-12-20T06:52:00;0.38;;;0.38;;
15555;SDS011;7879;48.660;9.116;2023-12-20T06:54:27;0.30;;;0.30;;
15555;SDS011;7879;48.660;9.116;2023-12-20T06:56:54;0.30;;;0.30;;
15555;SDS011;7879;48.660;9.116;2023-12-20T06:59:20;0.30;;;0.30;;
15555;SDS011;7879;48.660;9.116;2023-12-20T07:01:48;0.30;;;0.30;;
15555;SDS011;7879;48.660;9.116;2023-12-20T07:04:15;0.30;;;0.30;;
15555;SDS011;7879;48.660;9.116;2023-12-20T07:06:47;0.30;;;0.30;;
15555;SDS011;7879;48.660;9.116;2023-12-20T07:09:14;0.40;;;0.40;;
15555;SDS011;7879;48.660;9.116;2023-12-20T07:11:41;0.30;;;0.30;;
15555;SDS011;7879;48.660;9.116;2023-12-20T07:14:08;0.30;;;0.30;;
15555;SDS011;7879;48.660;9.116;2023-12-20T07:16:35;0.30;;;0.30;;
15555;SDS011;7879;48.660;9.116;2023-12-20T07:19:02;0.30;;;0.30;;
15555;SDS011;7879;48.660;9.116;2023-12-20T07:21:29;0.20;;;0.20;;
15555;SDS011;7879;48.660;9.116;2023-12-20T07:23:56;0.30;;;0.30;;
15555;SDS011;7879;48.660;9.116;2023-12-20T07:26:23;0.30;;;0.30;;
15555;SDS011;7879;48.660;9.116;2023-12-20T07:28:50;0.40;;;0.40;;
15555;SDS011;7879;48.660;9.116;2023-12-20T07:31:16;0.30;;;0.30;;
15555;SDS011;7879;48.660;9.116;2023-12-20T07:33:43;0.30;;;0.30;;
15555;SDS011;7879;48.660;9.116;2023-12-20T07:36:11;0.30;;;0.30;;
15555;SDS011;7879;48.660;9.116;2023-12-20T07:38:38;0.20;;;0.20;;
15555;SDS011;7879;48.660;9.116;2023-12-20T07:41:05;0.20;;;0.20;;
15555;SDS011;7879;48.660;9.116;2023-12-20T07:43:32;0.30;;;0.30;;
15555;SDS011;7879;48.660;9.116;2023-12-20T07:46:03;0.30;;;0.30;;
15555;SDS011;7879;48.660;9.116;2023-12-20T07:48:34;0.30;;;0.30;;
15555;SDS011;7879;48.660;9.116;2023-12-20T07:51:02;0.30;;;0.30;;
15555;SDS011;7879;48.660;9.116;2023-12-20T07:53:30;0.30;;;0.30;;
15555;SDS011;7879;48.660;9.116;2023-12-20T07:55:57;0.30;;;0.30;;
15555;SDS011;7879;48.660;9.116;2023-12-20T07:58:24;0.30;;;0.30;;
15555;SDS011;7879;48.660;9.116;2023-12-20T08:01:13;0.30;;;0.30;;
15555;SDS011;7879;48.660;9.116;2023-12-20T08:03:39;0.30;;;0.30;;
15555;SDS011;7879;48.660;9.116;2023-12-20T08:06:07;0.30;;;0.30;;
15555;SDS011;7879;48.660;9.116;2023-12-20T08:08:33;0.20;;;0.20;;
15555;SDS011;7879;48.660;9.116;2023-12-20T08:11:00;0.20;;;0.20;;
15555;SDS011;7879;48.660;9.116;2023-12-20T08:13:28;0.30;;;0.30;;
15555;SDS011;7879;48.660;9.116;2023-12-20T08:15:55;0.30;;;0.30;;
15555;SDS011;7879;48.660;9.116;2023-12-20T08:18:22;0.30;;;0.30;;
15555;SDS011;7879;48.660;9.116;2023-12-20T08:20:49;0.30;;;0.30;;
15555;SDS011;7879;48.660;9.116;2023-12-20T08:23:19;0.20;;;0.20;;
15555;SDS011;7879;48.660;9.116;2023-12-20T08:25:50;0.30;;;0.30;;
15555;SDS011;7879;48.660;9.116;2023-12-20T08:28:17;0.30;;;0.30;;
15555;SDS011;7879;48.660;9.116;2023-12-20T08:30:44;0.30;;;0.30;;
15555;SDS011;7879;48.660;9.116;2023-12-20T08:33:12;0.30;;;0.30;;
15555;SDS011;7879;48.660;9.116;2023-12-20T08:35:40;0.30;;;0.30;;
15555;SDS011;7879;48.660;9.116;2023-12-20T08:38:07;0.30;;;0.30;;
15555;SDS011;7879;48.660;9.116;2023-12-20T08:40:33;0.20;;;0.20;;
15555;SDS011;7879;48.660;9.116;2023-12-20T08:43:00;0.28;;;0.28;;
15555;SDS011;7879;48.660;9.116;2023-12-20T08:45:27;0.35;;;0.35;;
15555;SDS011;7879;48.660;9.116;2023-12-20T08:47:54;0.30;;;0.30;;
15555;SDS011;7879;48.660;9.116;2023-12-20T08:50:25;0.30;;;0.30;;
15555;SDS011;7879;48.660;9.116;2023-12-20T08:52:52;0.30;;;0.30;;
15555;SDS011;7879;48.660;9.116;2023-12-20T08:55:19;0.30;;;0.30;;
15555;SDS011;7879;48.660;9.116;2023-12-20T08:57:46;0.20;;;0.20;;
15555;SDS011;7879;48.660;9.116;2023-12-20T09:00:13;0.40;;;0.40;;
15555;SDS011;7879;48.660;9.116;2023-12-20T09:02:41;0.30;;;0.30;;
15555;SDS011;7879;48.660;9.116;2023-12-20T09:05:07;0.30;;;0.30;;
15555;SDS011;7879;48.660;9.116;2023-12-20T09:07:35;0.30;;;0.30;;
15555;SDS011;7879;48.660;9.116;2023-12-20T09:10:02;0.30;;;0.30;;
15555;SDS011;7879;48.660;9.116;2023-12-20T09:12:29;0.30;;;0.30;;
15555;SDS011;7879;48.660;9.116;2023-12-20T09:14:55;0.30;;;0.30;;
15555;SDS011;7879;48.660;9.116;2023-12-20T09:17:22;0.30;;;0.30;;
15555;SDS011;7879;48.660;9.116;2023-12-20T09:19:50;0.40;;;0.40;;
15555;SDS011;7879;48.660;9.116;2023-12-20T09:22:19;0.30;;;0.30;;
15555;SDS011;7879;48.660;9.116;2023-12-20T09:24:46;0.30;;;0.30;;
15555;SDS011;7879;48.660;9.116;2023-12-20T09:27:12;0.30;;;0.30;;
15555;SDS011;7879;48.660;9.116;2023-12-20T09:29:39;0.30;;;0.30;;
15555;SDS011;7879;48.660;9.116;2023-12-20T09:32:06;0.30;;;0.30;;
15555;SDS011;7879;48.660;9.116;2023-12-20T09:34:33;0.20;;;0.20;;
15555;SDS011;7879;48.660;9.116;2023-12-20T09:37:00;0.30;;;0.30;;
15555;SDS011;7879;48.660;9.116;2023-12-20T09:39:27;0.32;;;0.32;;
15555;SDS011;7879;48.660;9.116;2023-12-20T09:42:01;0.30;;;0.30;;
15555;SDS011;7879;48.660;9.116;2023-12-20T09:44:30;0.30;;;0.30;;
15555;SDS011;7879;48.660;9.116;2023-12-20T09:46:59;0.20;;;0.20;;
15555;SDS011;7879;48.660;9.116;2023-12-20T09:49:29;0.20;;;0.20;;
15555;SDS011;7879;48.660;9.116;2023-12-20T09:51:57;0.17;;;0.17;;
15555;SDS011;7879;48.660;9.116;2023-12-20T09:54:25;0.20;;;0.20;;
15555;SDS011;7879;48.660;9.116;2023-12-20T09:56:54;0.20;;;0.20;;
15555;SDS011;7879;48.660;9.116;2023-12-20T09:59:21;0.10;;;0.10;;
15555;SDS011;7879;48.660;9.116;2023-12-20T10:01:48;0.10;;;0.10;;
15555;SDS011;7879;48.660;9.116;2023-12-20T10:04:17;0.10;;;0.10;;
15555;SDS011;7879;48.660;9.116;2023-12-20T10:06:47;0.10;;;0.10;;
15555;SDS011;7879;48.660;9.116;2023-12-20T10:09:14;0.10;;;0.10;;
15555;SDS011;7879;48.660;9.116;2023-12-20T10:11:41;0.10;;;0.10;;
15555;SDS011;7879;48.660;9.116;2023-12-20T10:14:07;0.10;;;0.10;;
15555;SDS011;7879;48.660;9.116;2023-12-20T10:16:36;0.10;;;0.10;;
15555;SDS011;7879;48.660;9.116;2023-12-20T10:19:03;0.10;;;0.10;;
15555;SDS011;7879;48.660;9.116;2023-12-20T10:21:30;0.10;;;0.10;;
15555;SDS011;7879;48.660;9.116;2023-12-20T10:23:57;0.10;;;0.10;;
15555;SDS011;7879;48.660;9.116;2023-12-20T10:26:25;0.10;;;0.10;;
15555;SDS011;7879;48.660;9.116;2023-12-20T10:28:53;0.10;;;0.10;;
15555;SDS011;7879;48.660;9.116;2023-12-20T10:31:25;0.10;;;0.10;;
15555;SDS011;7879;48.660;9.116;2023-12-20T10:33:57;0.10;;;0.10;;
15555;SDS011;7879;48.660;9.116;2023-12-20T10:36:25;0.10;;;0.10;;
15555;SDS011;7879;48.660;9.116;2023-12-20T10:38:54;0.10;;;0.10;;
15555;SDS011;7879;48.660;9.116;2023-12-20T10:41:28;0.10;;;0.10;;
15555;SDS011;7879;48.660;9.116;2023-12-20T10:44:00;0.10;;;0.10;;
15555;SDS011;7879;48.660;9.116;2023-12-20T10:46:29;0.10;;;0.10;;
15555;SDS011;7879;48.660;9.116;2023-12-20T10:48:57;0.10;;;0.10;;
15555;SDS011;7879;48.660;9.116;2023-12-20T10:51:24;0.10;;;0.10;;
15555;SDS011;7879;48.660;9.116;2023-12-20T10:53:56;0.10;;;0.10;;
15555;SDS011;7879;48.660;9.116;2023-12-20T10:56:23;0.10;;;0.10;;
15555;SDS011;7879;48.660;9.116;2023-12-20T10:58:50;0.20;;;0.20;;
15555;SDS011;7879;48.660;9.116;2023-12-20T11:01:17;0.20;;;0.20;;
15555;SDS011;7879;48.660;9.116;2023-12-20T11:03:52;0.10;;;0.10;;
15555;SDS011;7879;48.660;9.116;2023-12-20T11:06:30;0.20;;;0.20;;
15555;SDS011;7879;48.660;9.116;2023-12-20T11:09:10;0.20;;;0.20;;
15555;SDS011;7879;48.660;9.116;2023-12-20T11:14:53;0.30;;;0.30;;
15555;SDS011;7879;48.660;9.116;2023-12-20T11:17:29;0.30;;;0.30;;
15555;SDS011;7879;48.660;9.116;2023-12-20T11:22:24;0.30;;;0.30;;
15555;SDS011;7879;48.660;9.116;2023-12-20T11:24:53;0.20;;;0.20;;
15555;SDS011;7879;48.660;9.116;2023-12-20T11:27:22;0.20;;;0.20;;
15555;SDS011;7879;48.660;9.116;2023-12-20T11:29:53;0.20;;;0.20;;
15555;SDS011;7879;48.660;9.116;2023-12-20T11:34:56;0.20;;;0.20;;
15555;SDS011;7879;48.660;9.116;2023-12-20T11:37:28;0.25;;;0.25;;
15555;SDS011;7879;48.660;9.116;2023-12-20T11:40:08;0.30;;;0.30;;
15555;SDS011;7879;48.660;9.116;2023-12-20T11:42:39;0.23;;;0.23;;
15555;SDS011;7879;48.660;9.116;2023-12-20T11:45:10;0.30;;;0.30;;
15555;SDS011;7879;48.660;9.116;2023-12-20T11:47:42;0.30;;;0.30;;
15555;SDS011;7879;48.660;9.116;2023-12-20T11:50:12;0.30;;;0.30;;
15555;SDS011;7879;48.660;9.116;2023-12-20T11:52:39;0.30;;;0.30;;
15555;SDS011;7879;48.660;9.116;2023-12-20T11:55:06;0.30;;;0.30;;
15555;SDS011;7879;48.660;9.116;2023-12-20T11:57:33;0.30;;;0.30;;
15555;SDS011;7879;48.660;9.116;2023-12-20T12:00:00;0.30;;;0.30;;
15555;SDS011;7879;48.660;9.116;2023-12-20T12:02:27;0.20;;;0.20;;
15555;SDS011;7879;48.660;9.116;2023-12-20T12:04:54;0.30;;;0.30;;
15555;SDS011;7879;48.660;9.116;2023-12-20T12:07:22;0.30;;;0.30;;
15555;SDS011;7879;48.660;9.116;2023-12-20T12:09:50;0.30;;;0.30;;
15555;SDS011;7879;48.660;9.116;2023-12-20T12:12:17;0.20;;;0.20;;
15555;SDS011;7879;48.660;9.116;2023-12-20T12:14:45;0.40;;;0.40;;
15555;SDS011;7879;48.660;9.116;2023-12-20T12:17:12;0.30;;;0.30;;
15555;SDS011;7879;48.660;9.116;2023-12-20T12:19:40;0.30;;;0.30;;
15555;SDS011;7879;48.660;9.116;2023-12-20T12:22:08;0.25;;;0.25;;
15555;SDS011;7879;48.660;9.116;2023-12-20T12:24:42;0.30;;;0.30;;
15555;SDS011;7879;48.660;9.116;2023-12-20T12:27:10;0.30;;;0.30;;
15555;SDS011;7879;48.660;9.116;2023-12-20T12:29:38;0.30;;;0.30;;
15555;SDS011;7879;48.660;9.116;2023-12-20T12:32:08;0.20;;;0.20;;
15555;SDS011;7879;48.660;9.116;2023-12-20T12:34:36;0.30;;;0.30;;
15555;SDS011;7879;48.660;9.116;2023-12-20T12:37:03;0.30;;;0.30;;
15555;SDS011;7879;48.660;9.116;2023-12-20T12:39:30;0.30;;;0.30;;
15555;SDS011;7879;48.660;9.116;2023-12-20T12:41:57;0.20;;;0.20;;
15555;SDS011;7879;48.660;9.116;2023-12-20T12:44:24;0.30;;;0.30;;
15555;SDS011;7879;48.660;9.116;2023-12-20T12:46:51;0.30;;;0.30;;
15555;SDS011;7879;48.660;9.116;2023-12-20T12:49:20;0.30;;;0.30;;
15555;SDS011;7879;48.660;9.116;2023-12-20T12:51:48;0.20;;;0.20;;
15555;SDS011;7879;48.660;9.116;2023-12-20T12:54:15;0.30;;;0.30;;
15555;SDS011;7879;48.660;9.116;2023-12-20T12:56:43;0.30;;;0.30;;
15555;SDS011;7879;48.660;9.116;2023-12-20T12:59:10;0.30;;;0.30;;
15555;SDS011;7879;48.660;9.116;2023-12-20T13:01:37;0.30;;;0.30;;
15555;SDS011;7879;48.660;9.116;2023-12-20T13:04:05;0.30;;;0.30;;
15555;SDS011;7879;48.660;9.116;2023-12-20T13:06:37;0.20;;;0.20;;
15555;SDS011;7879;48.660;9.116;2023-12-20T13:09:04;0.30;;;0.30;;
15555;SDS011;7879;48.660;9.116;2023-12-20T13:11:32;0.30;;;0.30;;
15555;SDS011;7879;48.660;9.116;2023-12-20T13:14:01;0.20;;;0.20;;
15555;SDS011;7879;48.660;9.116;2023-12-20T13:16:29;0.30;;;0.30;;
15555;SDS011;7879;48.660;9.116;2023-12-20T13:18:57;0.30;;;0.30;;
15555;SDS011;7879;48.660;9.116;2023-12-20T13:21:26;0.20;;;0.20;;
15555;SDS011;7879;48.660;9.116;2023-12-20T13:23:53;0.30;;;0.30;;
15555;SDS011;7879;48.660;9.116;2023-12-20T13:26:20;0.30;;;0.30;;
15555;SDS011;7879;48.660;9.116;2023-12-20T13:28:47;0.20;;;0.20;;
15555;SDS011;7879;48.660;9.116;2023-12-20T13:31:14;0.20;;;0.20;;
15555;SDS011;7879;48.660;9.116;2023-12-20T13:33:41;0.30;;;0.30;;
15555;SDS011;7879;48.660;9.116;2023-12-20T13:36:07;0.30;;;0.30;;
15555;SDS011;7879;48.660;9.116;2023-12-20T13:38:35;0.30;;;0.30;;
15555;SDS011;7879;48.660;9.116;2023-12-20T13:41:01;0.30;;;0.30;;
15555;SDS011;7879;48.660;9.116;2023-12-20T13:43:28;0.25;;;0.25;;
15555;SDS011;7879;48.660;9.116;2023-12-20T13:45:55;0.30;;;0.30;;
15555;SDS011;7879;48.660;9.116;2023-12-20T13:48:22;0.30;;;0.30;;
15555;SDS011;7879;48.660;9.116;2023-12-20T13:50:49;0.30;;;0.30;;
15555;SDS011;7879;48.660;9.116;2023-12-20T13:53:16;0.20;;;0.20;;
15555;SDS011;7879;48.660;9.116;2023-12-20T13:55:43;0.20;;;0.20;;
15555;SDS011;7879;48.660;9.116;2023-12-20T13:58:09;0.30;;;0.30;;
15555;SDS011;7879;48.660;9.116;2023-12-20T14:00:36;0.30;;;0.30;;
15555;SDS011;7879;48.660;9.116;2023-12-20T14:03:04;0.23;;;0.23;;
15555;SDS011;7879;48.660;9.116;2023-12-20T14:05:31;0.30;;;0.30;;
15555;SDS011;7879;48.660;9.116;2023-12-20T14:07:58;0.30;;;0.30;;
15555;SDS011;7879;48.660;9.116;2023-12-20T14:10:25;0.30;;;0.30;;
15555;SDS011;7879;48.660;9.116;2023-12-20T14:12:56;0.30;;;0.30;;
15555;SDS011;7879;48.660;9.116;2023-12-20T14:15:23;0.30;;;0.30;;
15555;SDS011;7879;48.660;9.116;2023-12-20T14:17:51;0.30;;;0.30;;
15555;SDS011;7879;48.660;9.116;2023-12-20T14:20:19;0.30;;;0.30;;
15555;SDS011;7879;48.660;9.116;2023-12-20T14:22:46;0.30;;;0.30;;
15555;SDS011;7879;48.660;9.116;2023-12-20T14:25:13;0.20;;;0.20;;
15555;SDS011;7879;48.660;9.116;2023-12-20T14:27:41;0.30;;;0.30;;
15555;SDS011;7879;48.660;9.116;2023-12-20T14:30:12;0.30;;;0.30;;
15555;SDS011;7879;48.660;9.116;2023-12-20T14:32:41;0.30;;;0.30;;
15555;SDS011;7879;48.660;9.116;2023-12-20T14:35:08;0.28;;;0.28;;
15555;SDS011;7879;48.660;9.116;2023-12-20T14:37:36;0.33;;;0.33;;
15555;SDS011;7879;48.660;9.116;2023-12-20T14:40:08;0.30;;;0.30;;
15555;SDS011;7879;48.660;9.116;2023-12-20T14:42:42;0.30;;;0.30;;
15555;SDS011;7879;48.660;9.116;2023-12-20T14:45:09;0.30;;;0.30;;
15555;SDS011;7879;48.660;9.116;2023-12-20T14:47:36;0.30;;;0.30;;
15555;SDS011;7879;48.660;9.116;2023-12-20T14:50:03;0.30;;;0.30;;
15555;SDS011;7879;48.660;9.116;2023-12-20T14:52:32;0.40;;;0.40;;
15555;SDS011;7879;48.660;9.116;2023-12-20T14:55:03;0.38;;;0.38;;
15555;SDS011;7879;48.660;9.116;2023-12-20T14:57:30;0.30;;;0.30;;
15555;SDS011;7879;48.660;9.116;2023-12-20T14:59:58;0.30;;;0.30;;
15555;SDS011;7879;48.660;9.116;2023-12-20T15:02:24;0.30;;;0.30;;
15555;SDS011;7879;48.660;9.116;2023-12-20T15:04:51;0.22;;;0.22;;
15555;SDS011;7879;48.660;9.116;2023-12-20T15:07:18;0.30;;;0.30;;
15555;SDS011;7879;48.660;9.116;2023-12-20T15:09:45;0.40;;;0.40;;
15555;SDS011;7879;48.660;9.116;2023-12-20T15:12:14;0.40;;;0.40;;